createdAt,value
2023-03-05T00:01:24.965Z,18.77
2023-03-05T00:03:54.069Z,20.55
2023-03-05T00:06:22.473Z,19.80
2023-03-05T00:08:50.048Z,20.13
2023-03-05T00:11:16.872Z,21.17
2023-03-05T00:13:43.941Z,19.33
2023-03-05T00:16:13.649Z,19.27
2023-03-05T00:18:40.795Z,20.63
2023-03-05T00:21:23.297Z,22.60
2023-03-05T00:23:51.302Z,22.50
2023-03-05T00:26:19.917Z,22.23
2023-03-05T00:28:51.759Z,21.25
2023-03-05T00:31:21.796Z,22.17
2023-03-05T00:33:57.254Z,23.10
2023-03-05T00:36:25.314Z,21.80
2023-03-05T00:38:52.323Z,22.35
2023-03-05T00:41:19.602Z,22.98
2023-03-05T00:43:47.116Z,22.30
2023-03-05T00:46:14.175Z,21.45
2023-03-05T00:48:41.234Z,21.25
2023-03-05T00:51:09.286Z,21.63
2023-03-05T00:53:36.290Z,20.23
2023-03-05T00:56:04.170Z,20.95
2023-03-05T00:58:31.267Z,21.40
2023-03-05T01:01:00.138Z,23.65
2023-03-05T01:03:28.563Z,21.75
2023-03-05T01:05:56.041Z,21.70
2023-03-05T01:08:23.814Z,20.30
2023-03-05T01:10:50.847Z,20.85
2023-03-05T01:13:17.963Z,21.60
2023-03-05T01:15:47.853Z,22.50
2023-03-05T01:18:15.293Z,20.58
2023-03-05T01:20:42.270Z,20.85
2023-03-05T01:23:09.546Z,20.25
2023-03-05T01:25:36.725Z,20.95
2023-03-05T01:28:04.151Z,19.80
2023-03-05T01:30:32.860Z,21.65
2023-03-05T01:32:59.936Z,22.17
2023-03-05T01:35:27.190Z,20.85
2023-03-05T01:37:55.006Z,20.92
2023-03-05T01:40:26.302Z,22.00
2023-03-05T01:43:21.833Z,21.67
2023-03-05T01:46:28.148Z,21.40
2023-03-05T01:48:57.911Z,21.45
2023-03-05T01:51:28.479Z,22.65
2023-03-05T01:53:58.368Z,23.65
2023-03-05T01:56:27.151Z,22.08
2023-03-05T01:58:58.010Z,21.58
2023-03-05T02:01:24.931Z,22.83
2023-03-05T02:03:52.042Z,20.98
2023-03-05T02:06:18.943Z,21.80
2023-03-05T02:08:45.932Z,22.33
2023-03-05T02:11:12.940Z,21.75
2023-03-05T02:13:40.829Z,21.55
2023-03-05T02:16:08.417Z,23.15
2023-03-05T02:18:35.570Z,22.00
2023-03-05T02:21:04.964Z,21.05
2023-03-05T02:23:36.392Z,20.90
2023-03-05T02:26:05.476Z,22.60
2023-03-05T02:28:49.383Z,22.23
2023-03-05T02:31:19.546Z,22.92
2023-03-05T02:33:47.635Z,22.90
2023-03-05T02:36:15.912Z,22.85
2023-03-05T02:38:44.073Z,24.23
2023-03-05T02:41:11.892Z,23.40
2023-03-05T02:43:39.249Z,22.83
2023-03-05T02:46:07.372Z,22.80
2023-03-05T02:48:34.416Z,22.63
2023-03-05T02:51:04.251Z,24.38
2023-03-05T02:53:31.356Z,23.23
2023-03-05T02:55:58.333Z,22.35
2023-03-05T02:58:25.273Z,20.60
2023-03-05T03:00:52.358Z,22.48
2023-03-05T03:03:19.517Z,22.67
2023-03-05T03:05:46.478Z,21.60
2023-03-05T03:08:13.437Z,20.92
2023-03-05T03:10:40.337Z,23.50
2023-03-05T03:13:07.263Z,21.13
2023-03-05T03:15:34.862Z,22.20
2023-03-05T03:18:01.744Z,21.98
2023-03-05T03:20:28.608Z,21.50
2023-03-05T03:22:55.666Z,21.20
2023-03-05T03:25:23.559Z,19.77
2023-03-05T03:27:52.482Z,20.38
2023-03-05T03:30:19.476Z,21.02
2023-03-05T03:32:47.696Z,21.73
2023-03-05T03:35:14.685Z,21.42
2023-03-05T03:37:41.728Z,20.70
2023-03-05T03:40:09.330Z,22.90
2023-03-05T03:42:36.276Z,22.25
2023-03-05T03:45:04.016Z,21.48
2023-03-05T03:47:31.626Z,21.77
2023-03-05T03:49:59.095Z,22.80
2023-03-05T03:52:26.680Z,22.00
2023-03-05T03:54:55.650Z,21.00
2023-03-05T03:57:22.674Z,21.90
2023-03-05T03:59:50.450Z,21.67
2023-03-05T04:02:17.872Z,22.13
2023-03-05T04:04:44.858Z,23.80
2023-03-05T04:07:11.807Z,21.27
2023-03-05T04:09:38.918Z,23.25
2023-03-05T04:12:06.268Z,22.88
2023-03-05T04:14:33.316Z,23.55
2023-03-05T04:17:00.320Z,21.90
2023-03-05T04:19:28.460Z,21.52
2023-03-05T04:21:55.398Z,21.63
2023-03-05T04:24:22.380Z,23.42
2023-03-05T04:26:49.348Z,20.83
2023-03-05T04:29:16.280Z,21.88
2023-03-05T04:31:43.376Z,21.52
2023-03-05T04:34:10.522Z,21.67
2023-03-05T04:36:37.445Z,20.88
2023-03-05T04:39:04.921Z,21.50
2023-03-05T04:41:31.883Z,22.98
2023-03-05T04:43:58.864Z,21.48
2023-03-05T04:46:25.816Z,21.67
2023-03-05T04:48:52.808Z,21.15
2023-03-05T04:51:19.669Z,22.63
2023-03-05T04:53:46.611Z,20.88
2023-03-05T04:56:13.550Z,22.23
2023-03-05T04:58:40.622Z,22.55
2023-03-05T05:01:07.596Z,22.30
2023-03-05T05:03:35.139Z,21.73
2023-03-05T05:06:02.292Z,22.58
2023-03-05T05:08:29.331Z,21.17
2023-03-05T05:11:01.568Z,20.88
2023-03-05T05:13:29.589Z,19.77
2023-03-05T05:15:57.339Z,18.60
2023-03-05T05:18:25.505Z,19.77
2023-03-05T05:20:52.518Z,21.67
2023-03-05T05:23:19.469Z,20.45
2023-03-05T05:25:46.397Z,20.50
2023-03-05T05:28:13.497Z,20.95
2023-03-05T05:30:40.378Z,19.85
2023-03-05T05:33:07.277Z,20.50
2023-03-05T05:35:34.359Z,19.85
2023-03-05T05:38:01.351Z,20.13
2023-03-05T05:40:28.283Z,20.80
2023-03-05T05:42:55.249Z,21.90
2023-03-05T05:45:22.191Z,19.52
2023-03-05T05:47:49.196Z,21.48
2023-03-05T05:50:16.603Z,20.88
2023-03-05T05:52:43.640Z,21.00
2023-03-05T05:55:11.128Z,21.58
2023-03-05T05:57:38.507Z,20.23
2023-03-05T06:00:08.570Z,20.67
2023-03-05T06:05:07.583Z,20.58
2023-03-05T06:07:35.346Z,20.00
2023-03-05T06:10:03.263Z,23.02
2023-03-05T06:12:30.492Z,21.35
2023-03-05T06:14:57.920Z,22.77
2023-03-05T06:17:30.331Z,26.25
2023-03-05T06:19:58.477Z,24.58
2023-03-05T06:22:25.894Z,23.13
2023-03-05T06:24:52.834Z,21.25
2023-03-05T06:27:19.806Z,21.10
2023-03-05T06:29:46.714Z,20.73
2023-03-05T06:32:13.720Z,22.02
2023-03-05T06:34:40.598Z,20.95
2023-03-05T06:37:07.775Z,22.48
2023-03-05T06:39:34.718Z,22.33
2023-03-05T06:42:01.579Z,20.67
2023-03-05T06:44:28.511Z,20.90
2023-03-05T06:46:55.413Z,22.80
2023-03-05T06:49:22.476Z,24.00
2023-03-05T06:51:49.568Z,23.42
2023-03-05T06:54:17.570Z,23.27
2023-03-05T06:56:47.117Z,22.10
2023-03-05T06:59:16.317Z,23.20
2023-03-05T07:01:44.377Z,27.10
2023-03-05T07:04:15.390Z,30.50
2023-03-05T07:06:43.403Z,29.60
2023-03-05T07:09:15.389Z,27.38
2023-03-05T07:11:42.798Z,27.42
2023-03-05T07:14:09.795Z,27.50
2023-03-05T07:16:36.672Z,26.70
2023-03-05T07:19:06.534Z,25.85
2023-03-05T07:21:35.449Z,25.52
2023-03-05T07:24:04.927Z,23.75
2023-03-05T07:26:33.585Z,24.67
2023-03-05T07:29:01.614Z,26.42
2023-03-05T07:31:31.517Z,27.73
2023-03-05T07:34:01.075Z,28.63
2023-03-05T07:36:28.592Z,27.65
2023-03-05T07:38:55.573Z,27.00
2023-03-05T07:41:23.633Z,26.48
2023-03-05T07:43:53.659Z,25.38
2023-03-05T07:46:23.249Z,26.08
2023-03-05T07:48:50.778Z,25.65
2023-03-05T07:51:19.981Z,28.35
2023-03-05T07:53:48.980Z,26.45
2023-03-05T07:56:37.802Z,27.17
2023-03-05T07:59:07.023Z,31.08
2023-03-05T08:01:34.766Z,27.27
2023-03-05T08:04:03.096Z,28.13
2023-03-05T08:06:30.286Z,30.98
2023-03-05T08:08:58.627Z,38.03
2023-03-05T08:11:25.662Z,39.65
2023-03-05T08:13:52.568Z,33.28
2023-03-05T08:16:21.288Z,35.90
2023-03-05T08:18:48.783Z,37.10
2023-03-05T08:21:21.415Z,35.08
2023-03-05T08:23:48.808Z,34.53
2023-03-05T08:26:21.423Z,34.00
2023-03-05T08:28:48.832Z,40.83
2023-03-05T08:31:17.961Z,39.22
2023-03-05T08:33:44.912Z,32.53
2023-03-05T08:36:11.944Z,32.60
2023-03-05T08:38:39.011Z,31.42
2023-03-05T08:41:06.260Z,31.15
2023-03-05T08:43:33.352Z,33.50
2023-03-05T08:46:01.910Z,31.55
2023-03-05T08:48:29.933Z,32.53
2023-03-05T08:50:56.974Z,30.13
2023-03-05T08:53:24.480Z,28.88
2023-03-05T08:55:56.309Z,27.88
2023-03-05T08:58:24.002Z,24.58
2023-03-05T09:00:51.701Z,23.23
2023-03-05T09:03:18.788Z,22.83
2023-03-05T09:05:46.126Z,21.83
2023-03-05T09:08:13.231Z,21.52
2023-03-05T09:10:42.769Z,21.40
2023-03-05T09:13:10.380Z,21.42
2023-03-05T09:15:38.358Z,21.35
2023-03-05T09:18:05.558Z,21.98
2023-03-05T09:20:33.343Z,21.77
2023-03-05T09:23:00.305Z,21.90
2023-03-05T09:25:27.425Z,21.65
2023-03-05T09:27:54.811Z,22.30
2023-03-05T09:30:22.388Z,19.92
2023-03-05T09:32:51.127Z,21.83
2023-03-05T09:35:18.430Z,21.92
2023-03-05T09:37:45.416Z,21.30
2023-03-05T09:40:18.098Z,21.77
2023-03-05T09:43:15.830Z,20.95
2023-03-05T09:45:57.868Z,21.75
2023-03-05T09:48:35.945Z,19.40
2023-03-05T09:51:04.489Z,21.38
2023-03-05T09:54:05.802Z,19.10
2023-03-05T09:56:36.746Z,21.02
2023-03-05T09:59:28.943Z,20.52
2023-03-05T10:02:01.622Z,20.45
2023-03-05T10:04:48.097Z,19.40
2023-03-05T10:07:33.635Z,19.90
2023-03-05T10:10:01.903Z,19.73
2023-03-05T10:12:45.371Z,19.05
2023-03-05T10:15:17.452Z,17.20
2023-03-05T10:17:50.565Z,18.57
2023-03-05T10:20:44.177Z,17.23
2023-03-05T10:23:20.330Z,17.77
2023-03-05T10:26:32.328Z,18.65
2023-03-05T10:29:03.459Z,17.95
2023-03-05T10:31:36.545Z,16.52
2023-03-05T10:34:39.993Z,15.88
2023-03-05T10:37:36.628Z,14.45
2023-03-05T10:40:13.054Z,15.18
2023-03-05T10:43:15.504Z,14.57
2023-03-05T10:45:45.535Z,14.48
2023-03-05T10:48:45.107Z,14.50
2023-03-05T10:51:35.324Z,14.80
2023-03-05T10:54:19.208Z,14.93
2023-03-05T10:56:46.122Z,13.50
2023-03-05T10:59:13.082Z,14.32
2023-03-05T11:01:40.223Z,14.85
2023-03-05T11:04:25.204Z,14.68
2023-03-05T11:06:52.106Z,14.75
2023-03-05T11:09:32.694Z,16.70
2023-03-05T11:12:13.382Z,16.38
2023-03-05T11:15:02.820Z,14.85
2023-03-05T11:17:32.880Z,14.57
2023-03-05T11:20:19.714Z,14.90
2023-03-05T11:23:11.922Z,14.85
2023-03-05T11:25:59.404Z,15.30
2023-03-05T11:28:41.737Z,14.75
2023-03-05T11:31:18.651Z,14.23
2023-03-05T11:34:17.710Z,14.05
2023-03-05T11:36:55.437Z,13.05
2023-03-05T11:39:24.412Z,13.88
2023-03-05T11:41:59.006Z,13.32
2023-03-05T11:44:43.250Z,12.73
2023-03-05T11:47:32.052Z,13.50
2023-03-05T11:50:20.216Z,12.63
2023-03-05T11:52:54.311Z,12.70
2023-03-05T11:56:02.648Z,12.85
2023-03-05T11:58:39.965Z,12.55
2023-03-05T12:01:29.161Z,13.05
2023-03-05T12:03:56.354Z,12.57
2023-03-05T12:06:26.035Z,12.55
2023-03-05T12:08:57.626Z,11.88
2023-03-05T12:11:29.190Z,11.98
2023-03-05T12:14:10.238Z,12.77
2023-03-05T12:17:08.422Z,13.57
2023-03-05T12:19:44.229Z,12.23
2023-03-05T12:22:22.956Z,12.50
2023-03-05T12:24:51.394Z,11.98
2023-03-05T12:27:36.864Z,13.05
2023-03-05T12:30:05.294Z,11.82
2023-03-05T12:32:32.398Z,12.75
2023-03-05T12:35:01.202Z,12.32
2023-03-05T12:37:28.333Z,12.60
2023-03-05T12:40:08.936Z,14.15
2023-03-05T12:42:59.581Z,12.50
2023-03-05T12:45:39.572Z,10.98
2023-03-05T12:48:26.519Z,12.57
2023-03-05T12:50:58.857Z,12.70
2023-03-05T12:53:25.785Z,13.73
2023-03-05T12:56:20.055Z,12.82
2023-03-05T12:59:00.642Z,11.30
2023-03-05T13:01:47.221Z,12.02
2023-03-05T13:04:19.871Z,12.18
2023-03-05T13:06:47.247Z,10.73
2023-03-05T13:09:25.771Z,23.23
2023-03-05T13:11:54.463Z,11.85
2023-03-05T13:14:43.971Z,10.63
2023-03-05T13:17:34.852Z,10.73
2023-03-05T13:20:06.334Z,10.93
2023-03-05T13:22:33.664Z,10.85
2023-03-05T13:25:21.605Z,10.35
2023-03-05T13:27:48.622Z,11.15
2023-03-05T13:30:22.474Z,10.00
2023-03-05T13:32:52.348Z,10.45
2023-03-05T13:35:21.158Z,10.27
2023-03-05T13:37:50.008Z,10.30
2023-03-05T13:40:23.331Z,10.68
2023-03-05T13:42:51.345Z,11.00
2023-03-05T13:45:28.220Z,12.95
2023-03-05T13:48:03.987Z,9.70
2023-03-05T13:50:35.362Z,10.63
2023-03-05T13:53:24.580Z,8.75
2023-03-05T13:56:03.090Z,7.40
2023-03-05T13:58:49.048Z,8.05
2023-03-05T14:01:26.108Z,8.18
2023-03-05T14:03:57.405Z,7.75
2023-03-05T14:06:27.830Z,7.75
2023-03-05T14:09:06.942Z,6.88
2023-03-05T14:11:35.423Z,8.10
2023-03-05T14:14:17.871Z,6.78
2023-03-05T14:16:44.939Z,8.30
2023-03-05T14:19:34.897Z,7.75
2023-03-05T14:22:02.511Z,7.20
2023-03-05T14:24:31.312Z,14.30
2023-03-05T14:27:07.800Z,8.30
2023-03-05T14:29:36.258Z,10.07
2023-03-05T14:32:05.074Z,7.95
2023-03-05T14:34:34.070Z,8.23
2023-03-05T14:37:45.095Z,7.38
2023-03-05T14:40:12.259Z,7.10
2023-03-05T14:42:57.423Z,6.78
2023-03-05T14:45:25.502Z,6.13
2023-03-05T14:47:54.034Z,6.03
2023-03-05T14:50:24.425Z,6.53
2023-03-05T14:52:55.918Z,6.40
2023-03-05T14:55:25.416Z,6.00
2023-03-05T14:57:58.150Z,4.95
2023-03-05T15:00:28.414Z,6.25
2023-03-05T15:02:55.507Z,6.70
2023-03-05T15:05:22.535Z,6.63
2023-03-05T15:07:50.472Z,8.10
2023-03-05T15:10:23.855Z,6.53
2023-03-05T15:12:53.187Z,6.68
2023-03-05T15:15:21.550Z,6.38
2023-03-05T15:17:55.158Z,6.80
2023-03-05T15:24:25.158Z,5.60
2023-03-05T15:26:52.241Z,5.15
2023-03-05T15:29:20.248Z,6.28
2023-03-05T15:31:47.500Z,6.40
2023-03-05T15:34:14.455Z,7.32
2023-03-05T15:36:41.529Z,7.88
2023-03-05T15:39:08.488Z,8.18
2023-03-05T15:41:37.592Z,6.95
2023-03-05T15:44:04.552Z,7.05
2023-03-05T15:46:35.387Z,7.13
2023-03-05T15:49:03.129Z,7.78
2023-03-05T15:51:30.218Z,7.10
2023-03-05T15:53:57.968Z,7.85
2023-03-05T15:56:24.952Z,7.10
2023-03-05T15:58:52.139Z,7.63
2023-03-05T16:01:20.333Z,8.13
2023-03-05T16:03:47.652Z,8.02
2023-03-05T16:06:16.621Z,8.10
2023-03-05T16:08:46.813Z,9.98
2023-03-05T16:11:14.200Z,9.80
2023-03-05T16:18:04.814Z,10.35
2023-03-05T16:20:32.035Z,10.82
2023-03-05T16:22:59.454Z,12.55
2023-03-05T16:25:58.697Z,11.85
2023-03-05T16:28:26.755Z,11.63
2023-03-05T16:30:58.300Z,13.75
2023-03-05T16:33:25.636Z,14.65
2023-03-05T16:36:14.318Z,14.93
2023-03-05T16:38:41.308Z,12.60
2023-03-05T16:41:09.030Z,14.30
2023-03-05T16:43:36.350Z,14.70
2023-03-05T16:46:03.699Z,14.27
2023-03-05T16:48:30.793Z,13.43
2023-03-05T16:50:58.021Z,15.32
2023-03-05T16:53:25.120Z,13.02
2023-03-05T16:55:52.302Z,14.27
2023-03-05T16:58:19.566Z,13.90
2023-03-05T17:00:46.939Z,14.00
2023-03-05T17:03:13.936Z,13.95
2023-03-05T17:05:41.107Z,13.52
2023-03-05T17:08:08.117Z,14.52
2023-03-05T17:10:35.263Z,14.75
2023-03-05T17:13:02.505Z,14.80
2023-03-05T17:15:29.535Z,13.18
2023-03-05T17:17:57.720Z,13.13
2023-03-05T17:20:24.825Z,13.50
2023-03-05T17:22:53.156Z,14.98
2023-03-05T17:25:21.186Z,14.00
2023-03-05T17:27:48.188Z,16.83
2023-03-05T17:30:15.613Z,16.85
2023-03-05T17:32:42.906Z,14.45
2023-03-05T17:35:18.042Z,13.70
2023-03-05T17:37:44.966Z,15.00
2023-03-05T17:40:16.010Z,29.98
2023-03-05T17:42:42.975Z,17.80
2023-03-05T17:45:10.341Z,17.42
2023-03-05T17:47:38.570Z,14.90
2023-03-05T17:50:11.066Z,18.48
2023-03-05T17:52:41.499Z,15.30
2023-03-05T17:55:11.693Z,14.73
2023-03-05T17:57:43.742Z,16.70
2023-03-05T18:00:17.394Z,16.33
2023-03-05T18:02:44.693Z,13.85
2023-03-05T18:05:12.290Z,25.20
2023-03-05T18:07:39.796Z,19.48
2023-03-05T18:10:08.943Z,18.73
2023-03-05T18:12:36.329Z,14.95
2023-03-05T18:15:05.869Z,15.57
2023-03-05T18:17:35.132Z,15.40
2023-03-05T18:20:04.095Z,13.90
2023-03-05T18:22:31.632Z,12.30
2023-03-05T18:24:58.884Z,12.82
2023-03-05T18:27:26.254Z,17.52
2023-03-05T18:29:55.676Z,15.10
2023-03-05T18:32:24.429Z,14.68
2023-03-05T18:34:51.724Z,15.13
2023-03-05T18:37:18.883Z,13.73
2023-03-05T18:39:46.165Z,13.95
2023-03-05T18:42:14.619Z,14.93
2023-03-05T18:44:42.402Z,13.88
2023-03-05T18:47:09.648Z,13.52
2023-03-05T18:49:36.768Z,17.15
2023-03-05T18:52:04.359Z,28.88
2023-03-05T18:54:33.229Z,14.25
2023-03-05T18:57:00.336Z,11.88
2023-03-05T18:59:27.290Z,11.35
2023-03-05T19:01:54.423Z,13.38
2023-03-05T19:04:21.406Z,12.50
2023-03-05T19:06:48.588Z,12.07
2023-03-05T19:09:22.193Z,11.68
2023-03-05T19:11:50.436Z,12.88
2023-03-05T19:14:21.235Z,11.07
2023-03-05T19:16:52.764Z,11.05
2023-03-05T19:19:22.680Z,11.30
2023-03-05T19:21:53.510Z,11.68
2023-03-05T19:24:25.672Z,12.35
2023-03-05T19:26:56.789Z,13.27
2023-03-05T19:29:24.708Z,11.82
2023-03-05T19:31:52.895Z,11.30
2023-03-05T19:34:23.069Z,13.75
2023-03-05T19:36:50.225Z,13.63
2023-03-05T19:39:17.157Z,13.00
2023-03-05T19:41:44.165Z,13.05
2023-03-05T19:44:12.844Z,12.25
2023-03-05T19:46:41.892Z,11.63
2023-03-05T19:49:09.452Z,10.43
2023-03-05T19:51:36.687Z,11.43
2023-03-05T19:54:04.568Z,11.93
2023-03-05T19:56:31.598Z,13.77
2023-03-05T19:58:58.724Z,15.93
2023-03-05T20:01:27.389Z,16.20
2023-03-05T20:03:56.626Z,16.42
2023-03-05T20:06:25.233Z,14.45
2023-03-05T20:08:52.826Z,14.15
2023-03-05T20:11:21.357Z,13.30
2023-03-05T20:13:49.149Z,13.52
2023-03-05T20:16:21.723Z,13.43
2023-03-05T20:18:52.727Z,15.07
2023-03-05T20:21:23.250Z,12.65
2023-03-05T20:23:55.798Z,12.32
2023-03-05T20:26:23.843Z,11.20
2023-03-05T20:28:51.021Z,11.90
2023-03-05T20:31:19.513Z,11.55
2023-03-05T20:33:46.644Z,13.07
2023-03-05T20:36:13.572Z,12.15
2023-03-05T20:38:40.693Z,11.48
2023-03-05T20:41:10.759Z,13.30
2023-03-05T20:43:41.333Z,14.02
2023-03-05T20:46:20.460Z,10.50
2023-03-05T20:48:49.450Z,12.45
2023-03-05T20:51:24.852Z,13.70
2023-03-05T20:53:56.277Z,10.70
2023-03-05T20:56:23.490Z,9.95
2023-03-05T20:58:50.431Z,11.50
2023-03-05T21:01:17.451Z,10.32
2023-03-05T21:03:44.359Z,9.90
2023-03-05T21:06:11.385Z,10.23
2023-03-05T21:08:38.347Z,7.55
2023-03-05T21:11:08.356Z,7.60
2023-03-05T21:13:35.601Z,9.90
2023-03-05T21:16:07.531Z,10.27
2023-03-05T21:18:35.265Z,12.27
2023-03-05T21:21:02.932Z,14.15
2023-03-05T21:23:34.066Z,13.40
2023-03-05T21:26:01.495Z,14.27
2023-03-05T21:28:29.544Z,15.45
2023-03-05T21:30:56.442Z,14.68
2023-03-05T21:33:30.433Z,15.38
2023-03-05T21:35:58.170Z,14.10
2023-03-05T21:38:27.250Z,11.40
2023-03-05T21:40:54.315Z,11.15
2023-03-05T21:43:23.309Z,13.05
2023-03-05T21:45:53.352Z,15.00
2023-03-05T21:48:21.874Z,14.80
2023-03-05T21:50:49.089Z,14.02
2023-03-05T21:53:17.913Z,16.30
2023-03-05T21:56:04.177Z,16.83
2023-03-05T21:58:35.351Z,16.73
2023-03-05T22:01:02.804Z,16.17
2023-03-05T22:03:29.901Z,16.63
2023-03-05T22:05:57.207Z,15.40
2023-03-05T22:08:25.115Z,14.80
2023-03-05T22:10:52.497Z,14.90
2023-03-05T22:13:20.742Z,14.13
2023-03-05T22:15:50.368Z,12.20
2023-03-05T22:18:25.867Z,11.63
2023-03-05T22:20:53.526Z,10.85
2023-03-05T22:23:22.484Z,13.40
2023-03-05T22:26:01.030Z,13.45
2023-03-05T22:28:28.977Z,14.93
2023-03-05T22:30:56.042Z,15.90
2023-03-05T22:33:23.534Z,14.45
2023-03-05T22:35:50.830Z,15.80
2023-03-05T22:38:17.943Z,14.27
2023-03-05T22:40:46.654Z,13.25
2023-03-05T22:43:14.197Z,13.35
2023-03-05T22:45:41.532Z,13.18
2023-03-05T22:48:10.060Z,14.45
2023-03-05T22:50:41.899Z,14.68
2023-03-05T22:53:08.948Z,14.43
2023-03-05T22:55:42.131Z,14.45
2023-03-05T22:58:09.226Z,14.07
2023-03-05T23:00:36.477Z,12.98
2023-03-05T23:03:03.778Z,14.23
2023-03-05T23:05:30.686Z,13.68
2023-03-05T23:07:57.940Z,14.43
2023-03-05T23:10:28.733Z,14.88
2023-03-05T23:12:58.408Z,14.60
2023-03-05T23:15:29.164Z,17.33
2023-03-05T23:17:56.806Z,16.88
2023-03-05T23:20:27.208Z,16.88
2023-03-05T23:22:56.135Z,16.88
2023-03-05T23:25:25.519Z,17.30
2023-03-05T23:27:52.479Z,16.02
2023-03-05T23:30:20.919Z,16.50
2023-03-05T23:32:58.089Z,15.32
2023-03-05T23:35:27.262Z,14.73
2023-03-05T23:37:55.729Z,15.45
2023-03-05T23:40:25.516Z,15.68
2023-03-05T23:42:53.425Z,15.27
2023-03-05T23:45:21.624Z,14.85
2023-03-05T23:47:49.355Z,13.98
2023-03-05T23:50:29.213Z,14.15
2023-03-05T23:52:57.466Z,14.18
2023-03-05T23:55:33.433Z,12.35
2023-03-05T23:58:00.584Z,13.27
